Time;durP1;ratioP1;P1;durP2;ratioP2;P2;SDS_P1;SDS_P2;PMS_P1;PMS_P2;Temp;Humidity;BMP_temperature;BMP_pressure;BME280_temperature;BME280_humidity;BME280_pressure;Samples;Min_cycle;Max_cycle;Signal;HPM_P1;HPM_P2
2023/05/19 00:00:43;;;;;;;8.85;2.70;;;;;;;9.11;70.35;102185.56;4942053;29;20261;-77
2023/05/19 00:03:20;;;;;;;9.23;2.97;;;;;;;9.08;70.39;102190.44;4927878;29;20200;-79
2023/05/19 00:05:52;;;;;;;7.82;4.15;;;;;;;9.04;70.51;102189.09;4941388;29;20200;-79
2023/05/19 00:08:25;;;;;;;6.88;3.42;;;;;;;8.83;71.35;102197.56;4936305;29;20217;-76
2023/05/19 00:10:57;;;;;;;8.73;4.00;;;;;;;9.05;70.42;102191.59;4938127;28;20188;-76
2023/05/19 00:13:27;;;;;;;10.68;3.30;;;;;;;9.08;70.00;102193.16;4937064;29;20179;-77
2023/05/19 00:15:59;;;;;;;3.38;2.30;;;;;;;9.03;70.13;102192.78;4939106;29;20193;-77
2023/05/19 00:18:29;;;;;;;4.78;2.80;;;;;;;8.92;70.78;102190.34;4950410;29;20208;-79
2023/05/19 00:20:59;;;;;;;5.57;2.95;;;;;;;8.85;71.04;102194.72;4935914;28;20207;-80
2023/05/19 00:23:28;;;;;;;7.90;2.80;;;;;;;8.94;70.54;102193.75;4943336;29;20306;-75
2023/05/19 00:25:58;;;;;;;5.15;2.35;;;;;;;8.93;70.53;102195.59;4948329;29;20196;-77
2023/05/19 00:28:27;;;;;;;5.07;2.55;;;;;;;8.90;70.39;102185.13;4931401;29;20245;-77
2023/05/19 00:30:58;;;;;;;7.82;3.60;;;;;;;8.82;71.00;102201.25;4932992;29;20176;-77
2023/05/19 00:33:32;;;;;;;4.70;2.08;;;;;;;8.70;71.59;102198.00;4924115;29;20200;-77
2023/05/19 00:36:02;;;;;;;4.80;3.40;;;;;;;8.64;71.69;102193.22;4930371;29;20188;-77
2023/05/19 00:38:34;;;;;;;3.58;2.45;;;;;;;8.58;71.94;102193.00;4929753;29;20638;-77
2023/05/19 00:41:05;;;;;;;8.32;2.85;;;;;;;8.75;71.32;102189.44;4928393;29;20365;-80
2023/05/19 00:43:35;;;;;;;7.32;3.63;;;;;;;8.57;71.86;102189.44;4923821;29;20210;-80
2023/05/19 00:46:07;;;;;;;8.27;2.42;;;;;;;8.61;71.93;102182.75;4914718;29;20255;-80
2023/05/19 00:48:37;;;;;;;5.13;2.70;;;;;;;8.55;72.32;102187.94;4921955;29;20699;-79
2023/05/19 00:51:06;;;;;;;4.88;2.70;;;;;;;8.42;72.68;102192.91;4908337;29;20204;-77
2023/05/19 00:53:36;;;;;;;4.47;3.03;;;;;;;8.51;72.21;102197.34;4913794;29;20200;-76
2023/05/19 00:56:07;;;;;;;9.13;3.35;;;;;;;8.29;72.99;102183.34;4912613;29;20210;-77
2023/05/19 00:58:38;;;;;;;6.18;3.30;;;;;;;8.29;73.27;102193.25;4942441;29;20301;-75
2023/05/19 01:01:15;;;;;;;5.47;2.67;;;;;;;8.22;73.60;102193.03;4926266;29;20246;-80
2023/05/19 01:03:46;;;;;;;3.45;2.47;;;;;;;8.27;73.50;102185.34;4933930;29;20225;-77
2023/05/19 01:06:17;;;;;;;7.72;2.97;;;;;;;8.27;73.86;102189.88;4925516;29;20201;-78
2023/05/19 01:08:52;;;;;;;8.77;2.15;;;;;;;8.29;73.96;102187.84;4909110;29;20206;-78
2023/05/19 01:11:21;;;;;;;6.68;3.15;;;;;;;8.25;73.71;102183.78;4906643;29;20186;-78
2023/05/19 01:13:51;;;;;;;7.03;3.25;;;;;;;8.18;73.76;102191.63;4920202;29;20211;-78
2023/05/19 01:16:30;;;;;;;4.55;2.78;;;;;;;8.08;74.10;102180.13;4949185;29;20289;-80
2023/05/19 01:19:14;;;;;;;7.10;2.70;;;;;;;8.06;74.42;102181.25;4935198;29;20197;-78
2023/05/19 01:22:12;;;;;;;12.95;4.45;;;;;;;8.02;74.64;102180.72;4945837;29;20203;-77
2023/05/19 01:25:22;;;;;;;3.72;2.47;;;;;;;7.96;74.79;102186.72;4944376;29;20299;-80
2023/05/19 01:28:22;;;;;;;8.38;3.15;;;;;;;7.99;74.99;102183.69;4930491;29;20234;-80
2023/05/19 01:30:55;;;;;;;6.00;2.60;;;;;;;7.89;75.02;102185.63;4934983;29;20183;-77
2023/05/19 01:33:25;;;;;;;5.15;2.58;;;;;;;7.95;74.95;102185.03;4941879;29;20219;-76
2023/05/19 01:35:55;;;;;;;26.15;3.83;;;;;;;7.94;74.89;102186.00;4942050;29;20191;-76
2023/05/19 01:38:28;;;;;;;5.82;2.63;;;;;;;7.82;75.22;102189.94;4931176;29;20220;-78
2023/05/19 01:40:59;;;;;;;6.57;2.88;;;;;;;7.77;75.97;102189.56;4920649;29;20202;-77
2023/05/19 01:43:29;;;;;;;5.88;3.05;;;;;;;7.81;75.16;102193.63;4921946;29;20295;-79
2023/05/19 01:46:02;;;;;;;5.60;3.13;;;;;;;7.74;75.53;102192.56;4921014;29;20208;-79
2023/05/19 01:48:33;;;;;;;5.38;3.10;;;;;;;7.84;75.25;102187.97;4921699;29;20216;-79
2023/05/19 01:51:02;;;;;;;8.20;3.40;;;;;;;7.73;75.66;102191.72;4920167;29;20649;-78
2023/05/19 01:53:32;;;;;;;7.75;3.45;;;;;;;7.71;75.70;102182.06;4918651;29;20304;-78
2023/05/19 01:56:02;;;;;;;6.68;4.32;;;;;;;7.77;75.63;102192.25;4924803;29;20195;-79
2023/05/19 01:58:40;;;;;;;4.85;2.33;;;;;;;7.59;76.07;102196.78;4926280;29;20218;-79
2023/05/19 02:01:20;;;;;;;9.75;3.50;;;;;;;7.59;76.35;102200.31;4930958;29;20303;-80
2023/05/19 02:04:13;;;;;;;6.25;2.25;;;;;;;7.58;76.21;102195.06;4910152;29;20213;-81
2023/05/19 02:06:46;;;;;;;5.20;3.08;;;;;;;7.53;76.59;102195.53;4931149;29;20201;-82
2023/05/19 02:09:19;;;;;;;6.00;3.20;;;;;;;7.49;76.90;102198.69;4932413;29;20202;-77
2023/05/19 02:11:56;;;;;;;6.18;3.45;;;;;;;7.51;76.89;102202.91;4945950;29;20592;-78
2023/05/19 02:14:41;;;;;;;5.22;3.08;;;;;;;7.45;76.92;102192.75;4932288;29;20207;-78
2023/05/19 02:17:15;;;;;;;4.72;3.47;;;;;;;7.55;76.67;102190.00;4931354;29;20663;-77
2023/05/19 02:19:45;;;;;;;12.25;3.65;;;;;;;7.55;76.91;102190.00;4951494;29;20237;-78
2023/05/19 02:22:15;;;;;;;13.98;3.53;;;;;;;7.55;76.38;102187.31;4954343;29;20205;-77
2023/05/19 02:24:46;;;;;;;11.30;2.75;;;;;;;7.54;76.56;102182.91;4931184;29;20813;-80
2023/05/19 02:27:15;;;;;;;5.80;3.22;;;;;;;7.59;76.79;102191.38;4927268;29;20228;-79
2023/05/19 02:29:46;;;;;;;5.10;3.28;;;;;;;7.51;77.09;102191.28;4932864;29;20189;-78
2023/05/19 02:32:17;;;;;;;6.32;2.55;;;;;;;7.56;76.53;102186.28;4953901;28;20214;-76
2023/05/19 02:34:47;;;;;;;6.80;2.35;;;;;;;7.62;76.38;102183.84;4955991;29;20669;-76
2023/05/19 02:37:17;;;;;;;4.38;2.75;;;;;;;7.52;76.93;102191.13;4944693;29;20206;-80
2023/05/19 02:39:50;;;;;;;6.70;2.80;;;;;;;7.56;76.96;102184.44;4932348;29;20204;-79
2023/05/19 02:42:19;;;;;;;9.55;3.50;;;;;;;7.61;76.80;102184.00;4931804;29;20567;-76
2023/05/19 02:44:49;;;;;;;4.43;2.90;;;;;;;7.61;76.40;102176.75;4953192;29;20623;-79
2023/05/19 02:47:20;;;;;;;3.03;2.50;;;;;;;7.58;76.98;102181.59;4938560;29;20225;-79
2023/05/19 02:49:50;;;;;;;10.07;2.70;;;;;;;7.72;76.18;102181.09;4938733;29;20193;-78
2023/05/19 02:52:20;;;;;;;8.02;2.97;;;;;;;7.63;76.51;102185.53;4915195;29;20215;-79
2023/05/19 02:54:50;;;;;;;7.82;2.83;;;;;;;7.66;76.53;102181.69;4922251;29;20211;-80
2023/05/19 02:57:19;;;;;;;6.55;2.22;;;;;;;7.67;76.32;102180.69;4926862;29;20222;-79
2023/05/19 02:59:49;;;;;;;6.38;2.85;;;;;;;7.67;76.69;102180.69;4938627;29;20686;-79
2023/05/19 03:02:20;;;;;;;6.45;2.55;;;;;;;7.60;76.78;102179.63;4926805;29;20633;-79
2023/05/19 03:04:50;;;;;;;3.05;2.30;;;;;;;7.61;76.64;102179.44;4940677;29;20202;-79
2023/05/19 03:07:23;;;;;;;5.05;3.10;;;;;;;7.55;77.25;102181.91;4927080;29;20219;-77
2023/05/19 03:09:53;;;;;;;4.07;2.50;;;;;;;7.63;76.83;102174.75;4924602;29;20208;-80
2023/05/19 03:12:26;;;;;;;6.15;3.17;;;;;;;7.58;77.41;102176.22;4924743;29;20282;-79
2023/05/19 03:14:56;;;;;;;4.15;2.58;;;;;;;7.59;77.36;102178.78;4924302;29;20230;-80
2023/05/19 03:17:32;;;;;;;9.13;2.78;;;;;;;7.66;77.08;102176.28;4925489;29;20213;-80
2023/05/19 03:20:02;;;;;;;7.22;3.08;;;;;;;7.70;76.74;102181.22;4936472;29;20199;-79
2023/05/19 03:22:33;;;;;;;5.00;2.75;;;;;;;7.84;76.13;102179.88;4942846;29;20189;-78
2023/05/19 03:25:03;;;;;;;7.25;2.33;;;;;;;7.76;76.25;102179.78;4943900;29;20639;-79
2023/05/19 03:27:33;;;;;;;5.13;3.15;;;;;;;7.72;76.68;102173.00;4943564;29;20271;-79
2023/05/19 03:30:03;;;;;;;8.15;2.80;;;;;;;7.74;76.74;102187.19;4938704;29;20205;-78
2023/05/19 03:32:41;;;;;;;4.53;2.83;;;;;;;7.82;76.61;102184.56;4915546;29;20308;-79
2023/05/19 03:35:11;;;;;;;5.65;2.70;;;;;;;7.86;76.38;102175.16;4918464;29;20229;-78
2023/05/19 03:37:40;;;;;;;3.97;2.45;;;;;;;7.82;76.72;102176.47;4918616;29;20693;-78
2023/05/19 03:40:11;;;;;;;8.38;3.60;;;;;;;7.86;76.30;102172.47;4915390;29;20344;-78
2023/05/19 03:42:42;;;;;;;7.57;2.70;;;;;;;7.92;76.04;102174.56;4915595;29;20186;-78
2023/05/19 03:45:12;;;;;;;4.80;3.25;;;;;;;7.95;75.93;102173.38;4918573;29;20201;-77
2023/05/19 03:47:45;;;;;;;3.40;2.20;;;;;;;8.04;75.82;102173.31;4920135;29;20218;-78
2023/05/19 03:50:30;;;;;;;4.82;2.53;;;;;;;8.17;75.14;102164.84;4937777;29;20208;-78
2023/05/19 03:53:13;;;;;;;7.95;2.40;;;;;;;8.22;75.36;102166.06;4937452;29;20223;-78
2023/05/19 03:55:43;;;;;;;9.60;4.18;;;;;;;8.41;74.36;102164.22;4916454;29;20197;-78
2023/05/19 03:58:17;;;;;;;5.85;3.17;;;;;;;8.52;74.25;102169.38;4918421;29;20314;-78
2023/05/19 04:00:47;;;;;;;14.45;3.08;;;;;;;8.74;72.94;102176.94;4917566;29;20221;-77
2023/05/19 04:03:18;;;;;;;6.78;3.15;;;;;;;8.97;72.44;102161.88;4915923;29;20205;-78
2023/05/19 04:05:48;;;;;;;12.48;3.83;;;;;;;9.52;70.46;102166.81;4916899;29;20191;-78
2023/05/19 04:08:17;;;;;;;5.80;3.00;;;;;;;9.70;68.64;102175.66;4922343;29;20219;-78
2023/05/19 04:10:46;;;;;;;6.95;2.33;;;;;;;9.60;68.74;102170.41;4917703;29;20183;-78
2023/05/19 04:13:15;;;;;;;6.10;2.70;;;;;;;10.00;68.21;102176.91;4926214;29;20590;-77
2023/05/19 04:15:44;;;;;;;4.70;2.75;;;;;;;10.81;65.28;102177.72;4923838;29;20216;-78
2023/05/19 04:18:14;;;;;;;4.70;2.80;;;;;;;11.39;62.37;102181.94;4934740;29;20220;-76
2023/05/19 04:20:45;;;;;;;3.15;2.40;;;;;;;11.93;60.83;102184.72;4941232;29;20177;-76
2023/05/19 04:23:14;;;;;;;7.72;2.83;;;;;;;12.52;58.84;102172.19;4919910;29;20275;-77
2023/05/19 04:25:47;;;;;;;8.27;2.88;;;;;;;13.00;57.02;102166.25;4918578;29;20219;-77
2023/05/19 04:28:17;;;;;;;4.90;2.47;;;;;;;12.94;56.88;102174.31;4920026;29;20208;-78
2023/05/19 04:30:47;;;;;;;10.17;2.90;;;;;;;12.61;57.78;102180.09;4941478;29;20475;-76
2023/05/19 04:33:16;;;;;;;2.60;2.23;;;;;;;12.31;58.19;102188.31;4942653;29;20469;-78
2023/05/19 04:35:49;;;;;;;2.90;2.57;;;;;;;12.00;59.52;102183.81;4921324;29;20441;-77
2023/05/19 04:38:19;;;;;;;7.10;2.60;;;;;;;12.00;59.37;102183.81;4922634;29;20992;-76
2023/05/19 04:40:50;;;;;;;9.50;3.33;;;;;;;11.92;60.16;102189.28;4916029;29;20930;-77
2023/05/19 04:43:21;;;;;;;6.60;3.27;;;;;;;12.36;58.84;102178.59;4899027;29;20446;-78
2023/05/19 04:45:51;;;;;;;5.63;2.90;;;;;;;12.85;57.74;102186.28;4917255;29;20432;-78
2023/05/19 04:48:26;;;;;;;4.07;2.63;;;;;;;13.17;55.81;102193.28;4920237;29;20520;-77
2023/05/19 04:50:56;;;;;;;7.60;3.13;;;;;;;12.82;57.06;102183.97;4931364;29;20429;-78
2023/05/19 04:53:26;;;;;;;3.73;2.80;;;;;;;12.61;57.32;102192.81;4953539;29;20433;-79
2023/05/19 04:55:55;;;;;;;5.10;2.70;;;;;;;12.27;58.50;102193.28;4940696;29;20407;-77
2023/05/19 04:58:26;;;;;;;4.50;2.27;;;;;;;11.93;59.49;102190.13;4985340;23;20490;-82
2023/05/19 05:00:56;;;;;;;4.83;2.40;;;;;;;12.18;59.18;102195.22;4915540;29;20425;-81
2023/05/19 05:03:25;;;;;;;5.33;2.33;;;;;;;13.00;56.70;102201.59;4925222;29;21140;-79
2023/05/19 05:05:57;;;;;;;4.03;2.40;;;;;;;13.28;55.69;102188.22;4932507;29;20424;-80
2023/05/19 05:08:27;;;;;;;6.00;3.17;;;;;;;14.15;53.10;102189.03;4921112;29;20503;-79
2023/05/19 05:10:57;;;;;;;6.13;2.70;;;;;;;14.16;52.84;102192.59;4920784;29;20449;-79
2023/05/19 05:13:27;;;;;;;6.20;3.17;;;;;;;13.98;53.54;102190.31;4919557;29;20435;-79
2023/05/19 05:15:57;;;;;;;3.40;2.40;;;;;;;14.22;53.01;102186.38;4915971;29;20453;-81
2023/05/19 05:18:27;;;;;;;3.77;2.70;;;;;;;13.84;53.79;102183.91;4915785;29;20440;-79
2023/05/19 05:20:58;;;;;;;5.50;2.97;;;;;;;13.81;53.73;102183.41;4908567;29;20447;-79
2023/05/19 05:23:28;;;;;;;3.70;2.70;;;;;;;13.40;55.36;102188.59;4903634;29;20460;-80
2023/05/19 05:26:10;;;;;;;5.50;2.30;;;;;;;13.13;55.65;102189.22;4918697;29;20772;-79
2023/05/19 05:28:41;;;;;;;4.83;2.50;;;;;;;12.11;59.29;102193.41;4922281;29;20416;-80
2023/05/19 05:31:10;;;;;;;4.03;2.50;;;;;;;11.62;61.39;102187.41;4922102;29;20450;-80
2023/05/19 05:33:41;;;;;;;9.30;2.87;;;;;;;11.20;63.12;102188.63;4922003;29;20436;-81
2023/05/19 05:36:14;;;;;;;6.10;2.50;;;;;;;11.09;64.04;102193.56;4923149;29;20435;-81
2023/05/19 05:38:43;;;;;;;3.83;2.30;;;;;;;11.16;64.52;102194.56;4921347;29;20469;-80
2023/05/19 05:41:15;;;;;;;4.33;2.27;;;;;;;11.34;64.19;102195.16;4924509;29;20462;-79
2023/05/19 05:43:47;;;;;;;5.57;2.67;;;;;;;11.50;63.83;102189.69;4918514;29;20431;-80
2023/05/19 05:46:16;;;;;;;3.60;2.70;;;;;;;11.75;63.32;102194.00;4912908;29;20553;-79
2023/05/19 05:48:46;;;;;;;4.63;2.60;;;;;;;12.04;61.61;102190.56;4917325;29;20470;-80
2023/05/19 05:51:17;;;;;;;5.07;2.60;;;;;;;11.94;61.87;102191.84;4908937;29;20445;-80
2023/05/19 05:53:51;;;;;;;3.67;2.97;;;;;;;11.91;62.86;102197.63;4918339;29;20444;-80
2023/05/19 05:56:23;;;;;;;6.20;2.40;;;;;;;12.42;61.39;102196.03;4922269;29;20412;-80
2023/05/19 05:58:55;;;;;;;3.83;2.10;;;;;;;12.63;60.53;102193.50;4929367;29;20462;-81
2023/05/19 06:01:25;;;;;;;5.50;2.57;;;;;;;12.43;60.58;102190.44;4921891;29;20393;-80
2023/05/19 06:03:54;;;;;;;4.47;2.57;;;;;;;12.44;60.67;102189.38;4920792;29;20465;-80
2023/05/19 06:06:26;;;;;;;4.70;2.50;;;;;;;12.50;60.95;102187.81;4907364;29;20428;-79
2023/05/19 06:08:56;;;;;;;3.73;2.73;;;;;;;13.00;59.59;102189.88;4939330;29;20522;-80
2023/05/19 06:11:25;;;;;;;5.13;3.30;;;;;;;13.15;59.51;102190.75;4927354;29;20461;-79
2023/05/19 06:13:56;;;;;;;5.47;2.93;;;;;;;13.54;58.38;102190.44;4921566;29;20420;-80
2023/05/19 06:17:04;;;;;;;4.50;3.40;;;;;;;13.47;57.75;102190.34;4919417;29;20453;-80
2023/05/19 06:19:35;;;;;;;4.03;3.03;;;;;;;13.14;58.76;102191.78;4921660;29;20464;-78
2023/05/19 06:22:05;;;;;;;4.27;2.93;;;;;;;13.03;59.67;102194.91;4921323;29;20427;-79
2023/05/19 06:24:35;;;;;;;2.90;2.33;;;;;;;13.08;59.59;102193.34;4921373;29;20450;-80
2023/05/19 06:27:08;;;;;;;3.50;2.30;;;;;;;13.01;60.19;102191.56;4909712;29;20447;-80
2023/05/19 06:29:37;;;;;;;3.90;2.60;;;;;;;13.28;59.33;102193.66;4922364;29;20474;-80
2023/05/19 06:32:08;;;;;;;5.00;3.10;;;;;;;13.27;59.43;102191.94;4906206;29;20463;-80
2023/05/19 06:34:39;;;;;;;7.80;3.00;;;;;;;13.27;59.76;102197.38;4914432;29;20453;-79
2023/05/19 06:37:09;;;;;;;5.30;2.70;;;;;;;13.15;60.18;102196.19;4914159;29;20467;-81
2023/05/19 06:39:39;;;;;;;4.73;2.53;;;;;;;13.23;60.32;102195.22;4921246;29;20437;-79
2023/05/19 06:42:08;;;;;;;5.90;3.40;;;;;;;13.35;59.81;102189.16;4921202;29;20414;-80
2023/05/19 06:45:10;;;;;;;5.83;2.40;;;;;;;13.80;59.42;102181.72;4918278;29;20442;-79
2023/05/19 06:47:41;;;;;;;7.00;3.60;;;;;;;14.03;57.85;102198.75;4925923;29;20445;-80
2023/05/19 06:50:11;;;;;;;7.00;3.97;;;;;;;13.99;57.87;102183.00;4921477;29;20386;-80
2023/05/19 06:52:45;;;;;;;3.83;2.83;;;;;;;14.02;57.79;102191.63;4928028;29;20418;-80
2023/05/19 06:55:14;;;;;;;4.17;2.63;;;;;;;14.19;57.49;102187.59;4928062;29;20494;-80
2023/05/19 06:57:43;;;;;;;8.73;3.73;;;;;;;14.40;57.55;102188.66;4925605;29;20507;-80
2023/05/19 07:00:15;;;;;;;4.13;2.90;;;;;;;14.64;56.28;102190.94;4932415;29;20446;-78
2023/05/19 07:03:00;;;;;;;5.67;4.00;;;;;;;14.41;57.04;102191.19;4922145;29;20459;-81
2023/05/19 07:05:30;;;;;;;4.90;3.10;;;;;;;14.74;56.14;102189.56;4930173;29;20437;-82
2023/05/19 07:08:03;;;;;;;6.30;2.47;;;;;;;14.72;56.49;102179.91;4926943;29;20514;-80
2023/05/19 07:10:33;;;;;;;4.60;2.70;;;;;;;14.75;56.05;102184.97;4922888;29;20444;-78
2023/05/19 07:13:05;;;;;;;6.33;2.90;;;;;;;14.81;56.60;102189.63;4922265;29;21030;-79
2023/05/19 07:15:35;;;;;;;4.93;2.43;;;;;;;15.02;56.56;102192.28;4923700;29;20492;-80
2023/05/19 07:18:04;;;;;;;4.27;2.30;;;;;;;15.08;56.22;102187.91;4926669;29;20464;-81
2023/05/19 07:20:34;;;;;;;3.80;2.30;;;;;;;15.05;56.60;102194.63;4924645;29;20422;-81
2023/05/19 07:23:04;;;;;;;4.17;2.90;;;;;;;15.16;56.51;102188.59;4927689;29;20439;-81
2023/05/19 07:25:33;;;;;;;7.60;2.70;;;;;;;15.17;56.36;102186.69;4920918;29;20404;-79
2023/05/19 07:28:03;;;;;;;4.47;2.40;;;;;;;15.34;55.39;102193.53;4922926;29;20489;-80
2023/05/19 07:30:32;;;;;;;5.30;3.03;;;;;;;15.37;55.40;102192.25;4916736;29;20433;-80
2023/05/19 07:33:01;;;;;;;5.20;3.30;;;;;;;15.40;55.62;102189.13;4926602;29;20416;-79
2023/05/19 07:35:31;;;;;;;3.87;2.97;;;;;;;16.06;54.46;102188.34;4918050;29;20430;-82
2023/05/19 07:38:01;;;;;;;6.50;3.03;;;;;;;16.52;53.29;102193.84;4917853;29;20443;-80
2023/05/19 07:40:31;;;;;;;2.83;2.23;;;;;;;16.47;52.02;102185.44;4916199;29;20436;-79
2023/05/19 07:43:00;;;;;;;6.17;2.70;;;;;;;16.54;51.72;102177.25;4919884;29;20412;-80
2023/05/19 07:45:29;;;;;;;10.30;3.07;;;;;;;16.45;52.19;102182.09;4908016;29;20456;-82
2023/05/19 07:47:58;;;;;;;3.17;2.50;;;;;;;16.18;51.90;102174.06;4909563;29;20447;-81
2023/05/19 07:50:27;;;;;;;4.37;2.53;;;;;;;16.28;52.20;102178.06;4907908;29;20503;-80
2023/05/19 07:52:58;;;;;;;4.70;2.80;;;;;;;16.69;51.52;102172.44;4909671;29;20458;-82
2023/05/19 07:55:27;;;;;;;4.97;2.47;;;;;;;16.84;50.50;102173.06;4905337;29;20456;-80
2023/05/19 07:57:57;;;;;;;4.87;3.60;;;;;;;16.81;50.55;102173.47;4905081;29;20531;-80
2023/05/19 08:00:27;;;;;;;5.03;3.57;;;;;;;16.70;51.14;102174.09;4908801;29;20440;-80
2023/05/19 08:02:56;;;;;;;6.90;2.33;;;;;;;16.58;51.13;102175.81;4908296;29;20414;-80
2023/05/19 08:05:25;;;;;;;6.73;3.07;;;;;;;16.60;51.86;102168.25;4912438;29;20492;-80
2023/05/19 08:07:55;;;;;;;4.07;3.30;;;;;;;16.56;50.91;102177.88;4905659;29;20974;-79
2023/05/19 08:10:24;;;;;;;5.60;3.03;;;;;;;16.71;51.39;102178.53;4911542;29;20456;-80
2023/05/19 08:12:53;;;;;;;3.90;3.20;;;;;;;16.78;50.68;102170.31;4907408;29;20423;-80
2023/05/19 08:15:24;;;;;;;4.50;3.50;;;;;;;16.97;50.80;102163.97;4908787;29;20493;-79
2023/05/19 08:17:53;;;;;;;5.43;3.60;;;;;;;17.37;49.51;102172.91;4910809;29;20437;-81
2023/05/19 08:20:23;;;;;;;3.87;2.80;;;;;;;17.21;49.87;102178.84;4908741;29;20423;-81
2023/05/19 08:22:52;;;;;;;8.97;2.77;;;;;;;17.57;48.89;102173.66;4904402;29;20535;-81
2023/05/19 08:25:21;;;;;;;6.47;4.13;;;;;;;17.74;47.76;102176.78;4902311;29;20432;-80
2023/05/19 08:27:50;;;;;;;7.67;3.33;;;;;;;17.78;47.71;102167.91;4902515;29;20460;-80
2023/05/19 08:30:20;;;;;;;5.43;2.97;;;;;;;18.47;46.76;102177.13;4903950;29;20948;-79
2023/05/19 08:32:50;;;;;;;4.20;3.13;;;;;;;18.66;45.66;102171.50;4905853;29;20467;-79
2023/05/19 08:35:19;;;;;;;4.00;3.37;;;;;;;18.62;45.56;102173.03;4903358;29;20450;-80
2023/05/19 08:37:49;;;;;;;4.00;3.00;;;;;;;18.60;45.43;102172.41;4906004;29;20496;-80
2023/05/19 08:40:18;;;;;;;6.83;3.57;;;;;;;18.60;45.21;102172.41;4914373;29;20423;-80
2023/05/19 08:42:48;;;;;;;4.90;2.93;;;;;;;18.70;45.28;102171.03;4915506;29;20427;-81
2023/05/19 08:45:17;;;;;;;5.93;3.67;;;;;;;18.91;45.19;102166.00;4911086;29;20413;-81
2023/05/19 08:47:55;;;;;;;5.63;2.80;;;;;;;18.79;44.23;102167.78;4907141;29;20450;-81
2023/05/19 08:50:30;;;;;;;2.60;2.20;;;;;;;18.56;42.18;102165.69;4910427;29;20449;-82
2023/05/19 08:53:05;;;;;;;5.37;2.27;;;;;;;18.61;42.63;102157.63;4908249;29;20408;-82
2023/05/19 08:56:09;;;;;;;4.40;2.07;;;;;;;18.79;41.95;102153.22;4906807;29;20501;-79
2023/05/19 08:58:42;;;;;;;4.90;2.70;;;;;;;19.21;41.55;102157.88;4913016;29;20719;-81
2023/05/19 09:01:15;;;;;;;4.00;2.00;;;;;;;19.25;40.81;102164.56;4909665;29;20429;-81
2023/05/19 09:03:48;;;;;;;3.57;2.17;;;;;;;18.87;41.76;102158.44;4908586;29;20420;-80
2023/05/19 09:06:18;;;;;;;4.43;2.97;;;;;;;19.03;41.41;102158.69;4912673;29;20387;-80
2023/05/19 09:08:47;;;;;;;4.60;3.00;;;;;;;18.54;41.65;102156.84;4922580;29;20500;-79
2023/05/19 09:11:21;;;;;;;5.40;2.57;;;;;;;18.72;42.18;102144.25;4918911;29;20426;-79
2023/05/19 09:14:22;;;;;;;6.60;2.23;;;;;;;18.60;41.00;102144.97;4924700;29;20652;-81
2023/05/19 09:17:06;;;;;;;5.40;2.30;;;;;;;18.50;41.41;102149.25;4915474;29;20470;-81
2023/05/19 09:20:09;;;;;;;3.33;2.23;;;;;;;18.14;42.05;102142.59;4921336;29;20452;-82
2023/05/19 09:23:00;;;;;;;3.13;2.20;;;;;;;18.59;41.59;102132.31;4914276;29;20444;-80
2023/05/19 09:25:59;;;;;;;2.20;2.00;;;;;;;18.43;41.63;102143.84;4917985;29;20479;-80
2023/05/19 09:28:30;;;;;;;2.70;1.90;;;;;;;18.46;41.97;102132.44;4913437;29;20472;-80
2023/05/19 09:31:03;;;;;;;4.60;2.33;;;;;;;18.77;41.09;102123.31;4918114;29;20436;-81
2023/05/19 09:33:35;;;;;;;2.63;2.03;;;;;;;18.65;40.30;102125.94;4914957;29;20564;-79
2023/05/19 09:36:09;;;;;;;2.90;1.70;;;;;;;18.75;40.41;102124.59;4919819;29;20393;-80
2023/05/19 09:38:40;;;;;;;3.93;1.87;;;;;;;18.86;39.72;102119.22;4919559;29;20511;-81
2023/05/19 09:41:10;;;;;;;3.17;1.57;;;;;;;18.73;40.34;102119.34;4915705;29;20405;-80
2023/05/19 09:43:39;;;;;;;3.50;1.37;;;;;;;18.61;40.72;102118.41;4922639;29;20515;-80
2023/05/19 09:46:09;;;;;;;3.27;1.70;;;;;;;19.61;40.05;102124.41;4924524;29;20455;-81
2023/05/19 09:48:42;;;;;;;5.50;2.80;;;;;;;20.39;38.06;102122.41;4917538;29;20529;-80
2023/05/19 09:51:16;;;;;;;2.43;1.67;;;;;;;20.18;38.10;102121.03;4912181;29;20430;-79
2023/05/19 09:53:48;;;;;;;4.20;1.80;;;;;;;20.36;37.46;102109.97;4920579;29;20533;-80
2023/05/19 09:56:22;;;;;;;6.30;1.77;;;;;;;20.07;38.11;102119.09;4915444;29;20435;-79
2023/05/19 09:58:51;;;;;;;3.60;1.80;;;;;;;19.44;38.54;102108.63;4920602;29;20457;-80
2023/05/19 10:01:21;;;;;;;3.03;2.00;;;;;;;18.96;38.99;102118.69;4916681;29;20421;-79
2023/05/19 10:03:52;;;;;;;1.97;1.53;;;;;;;18.86;39.46;102113.72;4922496;29;20441;-78
2023/05/19 10:06:23;;;;;;;3.43;1.47;;;;;;;18.91;40.10;102118.53;4921625;29;20434;-81
2023/05/19 10:08:53;;;;;;;3.10;1.90;;;;;;;19.29;39.37;102105.41;4909556;29;20497;-79
2023/05/19 10:11:23;;;;;;;3.60;1.90;;;;;;;19.50;39.73;102098.63;4911439;29;20455;-81
2023/05/19 10:13:52;;;;;;;2.53;1.50;;;;;;;19.56;39.49;102097.66;4912865;29;20454;-80
2023/05/19 10:16:24;;;;;;;2.50;1.83;;;;;;;19.24;39.15;102102.50;4907739;29;20434;-80
2023/05/19 10:18:55;;;;;;;4.33;1.87;;;;;;;18.89;39.31;102094.06;4911082;29;20520;-79
2023/05/19 10:21:26;;;;;;;6.50;2.17;;;;;;;19.13;39.50;102108.75;4913399;29;20447;-81
2023/05/19 10:23:56;;;;;;;2.53;1.60;;;;;;;19.25;39.21;102109.69;4910919;29;20462;-81
2023/05/19 10:26:26;;;;;;;7.83;2.10;;;;;;;19.59;39.23;102099.97;4909219;29;20439;-81
2023/05/19 10:28:56;;;;;;;2.80;1.70;;;;;;;19.98;38.37;102104.03;4913449;29;20469;-81
2023/05/19 10:31:27;;;;;;;4.23;1.97;;;;;;;19.69;37.59;102100.25;4914974;29;20748;-79
2023/05/19 10:34:23;;;;;;;2.07;1.30;;;;;;;19.65;37.59;102092.69;4915551;29;20734;-79
2023/05/19 10:37:03;;;;;;;2.40;1.70;;;;;;;19.77;37.89;102096.31;4911062;29;20765;-80
2023/05/19 10:39:36;;;;;;;2.23;1.40;;;;;;;20.30;37.07;102091.66;4933822;29;20481;-79
2023/05/19 10:42:15;;;;;;;3.30;1.67;;;;;;;19.86;37.57;102106.72;4920804;29;20482;-82
2023/05/19 10:44:57;;;;;;;2.40;1.73;;;;;;;19.57;37.67;102090.25;4913696;29;20442;-80
2023/05/19 10:47:27;;;;;;;2.40;1.30;;;;;;;19.95;36.91;102090.75;4911530;29;20542;-79
2023/05/19 10:49:56;;;;;;;3.57;1.50;;;;;;;20.03;36.90;102095.06;4910413;29;20441;-79
2023/05/19 10:52:29;;;;;;;5.00;1.80;;;;;;;20.03;36.89;102093.16;4916719;29;20450;-79
2023/05/19 10:55:03;;;;;;;2.70;1.73;;;;;;;20.00;37.04;102096.38;4911296;29;20434;-79
2023/05/19 10:57:32;;;;;;;2.97;1.80;;;;;;;19.90;37.32;102090.59;4919936;29;20464;-81
2023/05/19 11:00:10;;;;;;;3.20;1.90;;;;;;;19.49;38.12;102089.53;4918229;29;20476;-80
2023/05/19 11:02:41;;;;;;;5.00;1.63;;;;;;;19.84;37.60;102086.06;4908046;29;21050;-79
2023/05/19 11:05:13;;;;;;;4.00;2.10;;;;;;;19.62;38.10;102091.25;4909058;29;20483;-81
2023/05/19 11:07:54;;;;;;;2.53;1.60;;;;;;;19.18;38.64;102081.47;4911931;29;20441;-81
2023/05/19 11:10:24;;;;;;;3.43;1.80;;;;;;;19.15;39.46;102076.44;4907542;29;20535;-81
2023/05/19 11:12:57;;;;;;;2.20;1.60;;;;;;;19.46;38.63;102075.44;4900836;29;20417;-82
2023/05/19 11:15:27;;;;;;;2.53;1.63;;;;;;;19.48;38.01;102071.38;4910068;29;20447;-83
2023/05/19 11:17:56;;;;;;;2.60;1.80;;;;;;;19.77;38.04;102085.31;4903077;29;20487;-81
2023/05/19 11:20:28;;;;;;;3.03;2.30;;;;;;;19.75;38.22;102092.97;4906692;29;20413;-81
2023/05/19 11:23:09;;;;;;;2.63;1.53;;;;;;;20.10;37.47;102069.16;4929064;29;20419;-80
2023/05/19 11:25:46;;;;;;;1.73;1.30;;;;;;;20.15;37.78;102069.28;4922555;29;20438;-80
2023/05/19 11:28:24;;;;;;;4.93;1.50;;;;;;;19.88;37.87;102073.53;4910136;29;20515;-78
2023/05/19 11:30:56;;;;;;;4.60;2.03;;;;;;;20.01;37.42;102067.81;4910049;29;20438;-80
2023/05/19 11:33:26;;;;;;;2.00;1.40;;;;;;;19.95;36.79;102061.34;4921418;29;20441;-80
2023/05/19 11:35:57;;;;;;;3.47;2.07;;;;;;;19.90;37.50;102053.00;4921436;29;20408;-79
2023/05/19 11:38:31;;;;;;;3.30;1.67;;;;;;;20.25;36.54;102066.78;4926413;29;20454;-79
2023/05/19 11:41:01;;;;;;;2.67;1.70;;;;;;;19.90;36.56;102063.13;4919057;29;20436;-79
2023/05/19 11:43:30;;;;;;;2.00;1.27;;;;;;;19.95;37.22;102075.09;4924723;29;20425;-79
2023/05/19 11:46:01;;;;;;;3.70;1.73;;;;;;;20.11;36.56;102064.50;4920873;29;20410;-78
2023/05/19 11:48:31;;;;;;;2.80;1.73;;;;;;;19.74;37.36;102064.69;4913580;29;20513;-77
2023/05/19 11:51:01;;;;;;;2.53;1.40;;;;;;;19.85;37.52;102068.50;4911383;29;20798;-80